createdAt,value
2023-03-31T00:03:03.172Z,-20589.33333
2023-03-31T00:08:04.808Z,-20589.33333
2023-03-31T00:13:06.309Z,-61656
2023-03-31T00:18:07.930Z,-30856
2023-03-31T00:23:09.345Z,-61656
2023-03-31T00:28:10.730Z,-61656
2023-03-31T00:33:12.214Z,8744
2023-03-31T00:38:13.602Z,15344
2023-03-31T00:43:15.144Z,0
2023-03-31T00:48:16.539Z,-61656
2023-03-31T00:53:17.988Z,-61656
2023-03-31T00:58:19.382Z,-30856
2023-03-31T01:03:20.853Z,-61656
2023-03-31T01:08:22.519Z,-61656
2023-03-31T01:13:24.004Z,0
2023-03-31T01:18:25.466Z,0
2023-03-31T01:23:26.898Z,-61656
2023-03-31T01:28:28.278Z,-61656
2023-03-31T01:33:29.752Z,-61656
2023-03-31T01:38:31.160Z,-61656
2023-03-31T01:43:32.552Z,-61656
2023-03-31T01:48:34.038Z,-61656
2023-03-31T01:53:35.487Z,-61656
2023-03-31T01:58:36.893Z,-61656
2023-03-31T02:03:38.424Z,-61656
2023-03-31T02:08:39.889Z,-61656
2023-03-31T02:13:41.272Z,-61656
2023-03-31T02:18:42.682Z,-61656
2023-03-31T02:23:44.119Z,-61656
2023-03-31T02:28:45.540Z,-61656
2023-03-31T02:33:46.923Z,-61656
2023-03-31T02:38:48.368Z,-61656
2023-03-31T02:43:49.870Z,-61656
2023-03-31T02:48:51.304Z,-61656
2023-03-31T02:53:52.687Z,-61656
2023-03-31T02:58:54.119Z,30744
2023-03-31T03:03:55.533Z,61544
2023-03-31T03:08:56.926Z,30744
2023-03-31T03:13:58.346Z,30744
2023-03-31T03:18:59.712Z,61544
2023-03-31T03:24:01.120Z,61544
2023-03-31T03:29:02.531Z,15344
2023-03-31T03:34:04.166Z,7644
2023-03-31T03:39:05.651Z,20477.33333
2023-03-31T03:44:07.110Z,61544
2023-03-31T03:49:08.539Z,61544
2023-03-31T03:54:09.975Z,20477.33333
2023-03-31T03:59:11.399Z,7644
2023-03-31T04:04:12.833Z,5544
2023-03-31T04:09:14.250Z,1410.66667
2023-03-31T04:14:15.688Z,6104
2023-03-31T04:19:17.289Z,12264
2023-03-31T04:24:19.466Z,8744
2023-03-31T04:29:21.388Z,61544
2023-03-31T04:34:22.764Z,20477.33333
2023-03-31T04:39:24.163Z,7644
2023-03-31T04:44:25.592Z,4050.66667
2023-03-31T04:49:26.987Z,10210.66667
2023-03-31T04:54:28.457Z,10210.66667
2023-03-31T04:59:29.862Z,20477.33333
2023-03-31T05:04:31.334Z,8744
2023-03-31T05:09:34.994Z,12264
2023-03-31T05:14:36.643Z,10210.66667
2023-03-31T05:19:38.118Z,6104
2023-03-31T05:24:39.586Z,8744
2023-03-31T05:29:41.012Z,5544
2023-03-31T05:34:42.467Z,7644
2023-03-31T05:39:43.874Z,20477.33333
2023-03-31T05:44:45.318Z,20477.33333
2023-03-31T05:49:46.744Z,15344
2023-03-31T05:54:48.177Z,12264
2023-03-31T05:59:49.566Z,30744
2023-03-31T06:04:50.945Z,30744
2023-03-31T06:09:52.349Z,61544
2023-03-31T06:14:53.739Z,61544
2023-03-31T06:19:55.380Z,61544
2023-03-31T06:24:56.790Z,61544
2023-03-31T06:29:58.195Z,30744
2023-03-31T06:34:59.570Z,61544
2023-03-31T06:40:00.964Z,61544
2023-03-31T06:45:02.377Z,61544
2023-03-31T06:50:03.986Z,30744
2023-03-31T06:55:05.351Z,20477.33333
2023-03-31T07:00:06.929Z,30744
2023-03-31T07:05:08.358Z,15344
2023-03-31T07:10:09.743Z,7644
2023-03-31T07:15:11.164Z,4682.46154
2023-03-31T07:20:12.576Z,6788.44444
2023-03-31T07:25:14.027Z,12264
2023-03-31T07:30:15.424Z,5544
2023-03-31T07:35:16.852Z,7644
2023-03-31T07:40:18.386Z,3186.10526
2023-03-31T07:45:19.783Z,6104
2023-03-31T07:50:21.185Z,6104
2023-03-31T07:55:22.582Z,2408
2023-03-31T08:00:24.069Z,1064
2023-03-31T08:05:25.503Z,1523.48718
2023-03-31T08:10:26.956Z,1176
2023-03-31T08:15:28.375Z,1997.33333
2023-03-31T08:20:29.756Z,1704
2023-03-31T08:25:31.152Z,1128.61538
2023-03-31T08:30:32.558Z,1655.11111
2023-03-31T08:35:33.972Z,1484
2023-03-31T08:40:35.548Z,1064
2023-03-31T08:45:37.004Z,1755.76471
2023-03-31T08:50:38.410Z,3366.22222
2023-03-31T08:55:39.800Z,5544
2023-03-31T09:00:41.239Z,4050.66667
2023-03-31T09:05:52.974Z,3567.52941
2023-03-31T09:11:01.270Z,3366.22222
2023-03-31T09:16:03.545Z,1755.76471
2023-03-31T09:21:05.284Z,1997.33333
2023-03-31T09:26:07.123Z,2225.48148
2023-03-31T09:31:08.718Z,1655.11111
2023-03-31T09:36:10.516Z,1810.66667
2023-03-31T09:41:12.038Z,1608.86486
2023-03-31T09:46:13.448Z,3024
2023-03-31T09:51:14.878Z,3186.10526
2023-03-31T09:56:16.283Z,2877.33333
2023-03-31T10:01:17.730Z,2408
2023-03-31T10:06:19.158Z,2744
2023-03-31T10:11:20.549Z,2744
2023-03-31T10:16:22.008Z,5544
2023-03-31T10:21:23.556Z,2622.26087
2023-03-31T10:26:25.058Z,3366.22222
2023-03-31T10:31:27.856Z,3366.22222
2023-03-31T10:36:29.361Z,6788.44444
2023-03-31T10:41:30.759Z,2622.26087
2023-03-31T10:46:32.205Z,4050.66667
2023-03-31T10:51:33.675Z,3567.52941
2023-03-31T10:56:35.128Z,3794
2023-03-31T11:01:36.531Z,1484
2023-03-31T11:06:38.188Z,2144
2023-03-31T11:11:39.683Z,2313.23077
2023-03-31T11:16:41.187Z,3186.10526
2023-03-31T11:21:42.632Z,4682.46154
2023-03-31T11:26:44.057Z,6104
2023-03-31T11:31:45.631Z,2877.33333
2023-03-31T11:36:47.080Z,6104
2023-03-31T11:41:48.468Z,3794
2023-03-31T11:46:49.879Z,3794
2023-03-31T11:51:51.422Z,7644
2023-03-31T11:56:52.888Z,3794
2023-03-31T12:01:54.358Z,3794
2023-03-31T12:06:55.871Z,2510.66667
2023-03-31T12:11:57.273Z,1523.48718
2023-03-31T12:16:58.743Z,1523.48718
2023-03-31T12:22:00.331Z,1565.05263
2023-03-31T12:27:01.733Z,1044
2023-03-31T12:32:03.101Z,1523.48718
2023-03-31T12:37:04.706Z,754.52632
2023-03-31T12:42:06.097Z,628.44444
2023-03-31T12:47:07.677Z,644
2023-03-31T12:52:09.151Z,1344
2023-03-31T12:57:10.625Z,2144
2023-03-31T13:02:12.167Z,2877.33333
2023-03-31T13:07:27.313Z,1565.05263
2023-03-31T13:12:30.093Z,877.33333
2023-03-31T13:17:31.560Z,695.21951
2023-03-31T13:22:33.207Z,668.70588
2023-03-31T13:27:34.609Z,733.74359
2023-03-31T13:32:36.018Z,849.88235
2023-03-31T13:37:37.443Z,733.74359
2023-03-31T13:42:38.844Z,444.81301
2023-03-31T13:47:40.285Z,308.49704
2023-03-31T13:52:41.781Z,302.13953
2023-03-31T13:57:43.157Z,237.33333
2023-03-31T14:02:44.603Z,247.44828
2023-03-31T14:07:46.039Z,448.91803
2023-03-31T14:12:47.469Z,326.6087
2023-03-31T14:17:48.976Z,296
2023-03-31T14:22:50.362Z,514.37037
2023-03-31T14:27:51.777Z,357.42282
2023-03-31T14:32:53.225Z,429.03937
2023-03-31T14:37:54.606Z,466.0339
2023-03-31T14:42:56.023Z,566.22222
2023-03-31T14:47:57.526Z,1024.70175
2023-03-31T14:52:59.200Z,652.04598
2023-03-31T14:58:00.623Z,863.40299
2023-03-31T15:03:02.086Z,733.74359
2023-03-31T15:08:03.609Z,530.66667
2023-03-31T15:13:05.091Z,514.37037
2023-03-31T15:18:07.325Z,566.22222
2023-03-31T15:23:10.356Z,585.66667
2023-03-31T15:28:11.857Z,652.04598
2023-03-31T15:33:19.370Z,686.16867
2023-03-31T15:38:21.226Z,1254.6383
2023-03-31T15:43:25.913Z,4682.46154
2023-03-31T15:48:27.845Z,10210.66667
2023-03-31T15:53:29.263Z,20477.33333
2023-03-31T15:58:30.648Z,61544
2023-03-31T16:03:32.026Z,61544
2023-03-31T16:08:33.478Z,0
2023-03-31T16:13:34.989Z,61544
2023-03-31T16:18:36.442Z,61544
2023-03-31T16:23:37.849Z,0
2023-03-31T16:28:39.275Z,-61656
2023-03-31T16:33:40.731Z,0
2023-03-31T16:38:42.113Z,-61656
2023-03-31T16:43:43.554Z,-61656
2023-03-31T16:48:44.969Z,-61656
2023-03-31T16:53:46.534Z,-61656
2023-03-31T16:58:47.980Z,-61656
2023-03-31T17:03:49.519Z,0
2023-03-31T17:08:56.009Z,0
2023-03-31T17:13:57.507Z,0
2023-03-31T17:18:58.966Z,0
2023-03-31T17:24:03.086Z,0
2023-03-31T17:29:04.949Z,0
2023-03-31T17:34:06.433Z,0
2023-03-31T17:39:07.858Z,-61656
2023-03-31T17:44:09.276Z,-61656
2023-03-31T17:49:10.679Z,0
2023-03-31T17:54:12.086Z,0
2023-03-31T17:59:13.553Z,-61656
2023-03-31T18:04:15.131Z,0
2023-03-31T18:09:16.537Z,0
2023-03-31T18:14:18.148Z,0
2023-03-31T18:19:19.594Z,-61656
2023-03-31T18:24:21.032Z,-61656
2023-03-31T18:29:22.556Z,-61656
2023-03-31T18:34:23.999Z,-61656
2023-03-31T18:39:25.440Z,0
2023-03-31T18:44:26.919Z,-61656
2023-03-31T18:49:28.321Z,-61656
2023-03-31T18:54:29.863Z,-61656
2023-03-31T18:59:31.248Z,-61656
2023-03-31T19:04:32.737Z,-61656
2023-03-31T19:09:34.185Z,-61656
2023-03-31T19:14:35.778Z,-61656
2023-03-31T19:19:37.240Z,-61656
2023-03-31T19:24:38.680Z,0
2023-03-31T19:29:40.165Z,0
2023-03-31T19:34:41.561Z,-61656
2023-03-31T19:39:43.117Z,0
2023-03-31T19:44:44.489Z,-61656
2023-03-31T19:49:45.973Z,0
2023-03-31T19:54:47.407Z,0
2023-03-31T19:59:48.789Z,-61656
2023-03-31T20:04:50.552Z,-61656
2023-03-31T20:09:52.017Z,-61656
2023-03-31T20:14:58.352Z,-61656
2023-03-31T20:19:59.758Z,0
2023-03-31T20:25:01.177Z,-61656
2023-03-31T20:30:02.602Z,-61656
2023-03-31T20:35:04.030Z,0
2023-03-31T20:40:05.682Z,-61656
2023-03-31T20:45:07.094Z,0
2023-03-31T20:50:08.666Z,-61656
2023-03-31T20:55:10.080Z,-61656
2023-03-31T21:00:11.469Z,-61656
2023-03-31T21:05:12.867Z,-61656
2023-03-31T21:10:14.283Z,-61656
2023-03-31T21:15:15.850Z,-61656
2023-03-31T21:20:17.310Z,-61656
2023-03-31T21:25:18.871Z,-61656
2023-03-31T21:30:20.374Z,0
2023-03-31T21:35:21.809Z,-61656
2023-03-31T21:40:23.313Z,0
2023-03-31T21:45:24.814Z,0
2023-03-31T21:50:26.240Z,0
2023-03-31T21:55:27.920Z,0
2023-03-31T22:00:29.339Z,-61656
2023-03-31T22:05:31.078Z,-61656
2023-03-31T22:10:32.661Z,-61656
2023-03-31T22:15:34.448Z,-61656
2023-03-31T22:20:36.086Z,-61656
2023-03-31T22:25:37.502Z,-61656
2023-03-31T22:30:38.812Z,-61656
2023-03-31T22:35:40.312Z,-61656
2023-03-31T22:40:41.819Z,-61656
2023-03-31T22:45:43.475Z,-61656
2023-03-31T22:50:44.908Z,-61656
2023-03-31T22:55:53.973Z,0
2023-03-31T23:00:56.110Z,-61656
2023-03-31T23:05:57.592Z,0
2023-03-31T23:10:59.045Z,0
2023-03-31T23:16:00.507Z,0
2023-03-31T23:21:01.945Z,-61656
2023-03-31T23:26:03.353Z,0
2023-03-31T23:31:04.936Z,0
2023-03-31T23:36:06.429Z,0
2023-03-31T23:41:07.851Z,0
2023-03-31T23:46:09.287Z,0
2023-03-31T23:51:10.765Z,0
2023-03-31T23:56:12.237Z,0
